sensor_id;sensor_type;location;lat;lon;timestamp;P1;durP1;ratioP1;P2;durP2;ratioP2
33138;SDS011;19501;50.948;5.316;2022-09-30T00:01:20;29.73;;;13.93;;
33138;SDS011;19501;50.948;5.316;2022-09-30T00:03:46;24.48;;;12.10;;
33138;SDS011;19501;50.948;5.316;2022-09-30T00:06:13;23.80;;;12.15;;
33138;SDS011;19501;50.948;5.316;2022-09-30T00:08:39;26.00;;;11.18;;
33138;SDS011;19501;50.948;5.316;2022-09-30T00:11:06;23.20;;;11.60;;
33138;SDS011;19501;50.948;5.316;2022-09-30T00:13:36;22.90;;;11.05;;
33138;SDS011;19501;50.948;5.316;2022-09-30T00:16:03;25.15;;;11.70;;
33138;SDS011;19501;50.948;5.316;2022-09-30T00:18:29;23.85;;;12.35;;
33138;SDS011;19501;50.948;5.316;2022-09-30T00:20:55;24.50;;;11.57;;
33138;SDS011;19501;50.948;5.316;2022-09-30T00:23:21;25.00;;;11.85;;
33138;SDS011;19501;50.948;5.316;2022-09-30T00:25:48;26.65;;;12.27;;
33138;SDS011;19501;50.948;5.316;2022-09-30T00:28:15;30.00;;;12.55;;
33138;SDS011;19501;50.948;5.316;2022-09-30T00:30:42;24.67;;;11.77;;
33138;SDS011;19501;50.948;5.316;2022-09-30T00:33:07;24.67;;;11.75;;
33138;SDS011;19501;50.948;5.316;2022-09-30T00:35:34;25.65;;;12.18;;
33138;SDS011;19501;50.948;5.316;2022-09-30T00:38:00;24.23;;;10.75;;
33138;SDS011;19501;50.948;5.316;2022-09-30T00:40:26;23.10;;;11.30;;
33138;SDS011;19501;50.948;5.316;2022-09-30T00:42:52;24.90;;;11.77;;
33138;SDS011;19501;50.948;5.316;2022-09-30T00:45:18;26.23;;;12.35;;
33138;SDS011;19501;50.948;5.316;2022-09-30T00:47:54;23.80;;;11.57;;
33138;SDS011;19501;50.948;5.316;2022-09-30T00:55:56;22.33;;;10.95;;
33138;SDS011;19501;50.948;5.316;2022-09-30T00:58:30;25.23;;;10.70;;
33138;SDS011;19501;50.948;5.316;2022-09-30T01:01:03;22.98;;;11.10;;
33138;SDS011;19501;50.948;5.316;2022-09-30T01:03:30;23.65;;;10.82;;
33138;SDS011;19501;50.948;5.316;2022-09-30T01:05:57;24.52;;;11.00;;
33138;SDS011;19501;50.948;5.316;2022-09-30T01:08:23;23.08;;;10.63;;
33138;SDS011;19501;50.948;5.316;2022-09-30T01:10:51;23.27;;;11.85;;
33138;SDS011;19501;50.948;5.316;2022-09-30T01:13:17;21.80;;;10.70;;
33138;SDS011;19501;50.948;5.316;2022-09-30T01:26:47;22.73;;;11.68;;
33138;SDS011;19501;50.948;5.316;2022-09-30T01:37:23;27.33;;;10.95;;
33138;SDS011;19501;50.948;5.316;2022-09-30T01:43:09;22.92;;;10.30;;
33138;SDS011;19501;50.948;5.316;2022-09-30T01:45:55;23.63;;;10.80;;
33138;SDS011;19501;50.948;5.316;2022-09-30T01:48:31;23.40;;;11.10;;
33138;SDS011;19501;50.948;5.316;2022-09-30T01:51:10;24.63;;;12.47;;
33138;SDS011;19501;50.948;5.316;2022-09-30T01:56:24;23.60;;;11.10;;
33138;SDS011;19501;50.948;5.316;2022-09-30T02:02:05;25.25;;;11.60;;
33138;SDS011;19501;50.948;5.316;2022-09-30T02:04:40;24.52;;;11.80;;
33138;SDS011;19501;50.948;5.316;2022-09-30T02:07:12;23.75;;;11.23;;
33138;SDS011;19501;50.948;5.316;2022-09-30T02:09:45;25.45;;;11.88;;
33138;SDS011;19501;50.948;5.316;2022-09-30T02:12:17;24.83;;;11.48;;
33138;SDS011;19501;50.948;5.316;2022-09-30T02:14:49;25.80;;;12.10;;
33138;SDS011;19501;50.948;5.316;2022-09-30T02:17:36;23.88;;;11.23;;
33138;SDS011;19501;50.948;5.316;2022-09-30T02:20:09;23.58;;;11.40;;
33138;SDS011;19501;50.948;5.316;2022-09-30T02:22:48;24.98;;;11.70;;
33138;SDS011;19501;50.948;5.316;2022-09-30T02:25:22;26.95;;;12.73;;
33138;SDS011;19501;50.948;5.316;2022-09-30T02:27:53;29.77;;;12.85;;
33138;SDS011;19501;50.948;5.316;2022-09-30T02:30:22;27.55;;;12.52;;
33138;SDS011;19501;50.948;5.316;2022-09-30T02:32:49;25.05;;;11.65;;
33138;SDS011;19501;50.948;5.316;2022-09-30T02:35:22;24.65;;;12.40;;
33138;SDS011;19501;50.948;5.316;2022-09-30T02:38:13;27.38;;;13.15;;
33138;SDS011;19501;50.948;5.316;2022-09-30T02:40:45;24.27;;;12.15;;
33138;SDS011;19501;50.948;5.316;2022-09-30T02:43:15;17.60;;;9.38;;
33138;SDS011;19501;50.948;5.316;2022-09-30T02:45:57;23.42;;;11.60;;
33138;SDS011;19501;50.948;5.316;2022-09-30T02:54:12;25.52;;;11.93;;
33138;SDS011;19501;50.948;5.316;2022-09-30T02:57:15;25.75;;;11.25;;
33138;SDS011;19501;50.948;5.316;2022-09-30T02:59:46;27.92;;;12.02;;
33138;SDS011;19501;50.948;5.316;2022-09-30T03:02:15;28.15;;;12.40;;
33138;SDS011;19501;50.948;5.316;2022-09-30T03:04:41;30.23;;;12.80;;
33138;SDS011;19501;50.948;5.316;2022-09-30T03:07:09;28.40;;;12.50;;
33138;SDS011;19501;50.948;5.316;2022-09-30T03:09:35;25.02;;;12.25;;
33138;SDS011;19501;50.948;5.316;2022-09-30T03:12:24;25.02;;;11.45;;
33138;SDS011;19501;50.948;5.316;2022-09-30T03:23:27;27.67;;;12.20;;
33138;SDS011;19501;50.948;5.316;2022-09-30T03:26:08;26.27;;;12.10;;
33138;SDS011;19501;50.948;5.316;2022-09-30T03:28:51;24.35;;;12.70;;
33138;SDS011;19501;50.948;5.316;2022-09-30T03:31:40;27.73;;;13.50;;
33138;SDS011;19501;50.948;5.316;2022-09-30T03:40:02;28.40;;;12.85;;
33138;SDS011;19501;50.948;5.316;2022-09-30T03:42:35;27.40;;;12.68;;
33138;SDS011;19501;50.948;5.316;2022-09-30T03:45:10;25.23;;;12.10;;
33138;SDS011;19501;50.948;5.316;2022-09-30T03:47:51;24.92;;;11.50;;
33138;SDS011;19501;50.948;5.316;2022-09-30T03:50:20;26.45;;;13.05;;
33138;SDS011;19501;50.948;5.316;2022-09-30T03:52:48;25.92;;;12.15;;
33138;SDS011;19501;50.948;5.316;2022-09-30T03:55:15;26.38;;;12.25;;
33138;SDS011;19501;50.948;5.316;2022-09-30T03:57:44;25.38;;;12.90;;
33138;SDS011;19501;50.948;5.316;2022-09-30T04:00:10;25.85;;;12.38;;
33138;SDS011;19501;50.948;5.316;2022-09-30T04:02:37;25.08;;;11.95;;
33138;SDS011;19501;50.948;5.316;2022-09-30T04:05:03;25.10;;;12.00;;
33138;SDS011;19501;50.948;5.316;2022-09-30T04:07:29;27.65;;;13.82;;
33138;SDS011;19501;50.948;5.316;2022-09-30T04:09:55;26.60;;;13.15;;
33138;SDS011;19501;50.948;5.316;2022-09-30T04:12:21;28.70;;;12.93;;
33138;SDS011;19501;50.948;5.316;2022-09-30T04:14:47;26.63;;;12.32;;
33138;SDS011;19501;50.948;5.316;2022-09-30T04:17:12;24.92;;;12.40;;
33138;SDS011;19501;50.948;5.316;2022-09-30T04:19:38;23.75;;;11.27;;
33138;SDS011;19501;50.948;5.316;2022-09-30T04:22:07;24.70;;;11.82;;
33138;SDS011;19501;50.948;5.316;2022-09-30T04:24:33;27.83;;;11.85;;
33138;SDS011;19501;50.948;5.316;2022-09-30T04:26:59;26.33;;;12.93;;
33138;SDS011;19501;50.948;5.316;2022-09-30T04:29:26;33.33;;;12.75;;
33138;SDS011;19501;50.948;5.316;2022-09-30T04:31:52;29.88;;;12.55;;
33138;SDS011;19501;50.948;5.316;2022-09-30T04:34:18;27.08;;;12.23;;
33138;SDS011;19501;50.948;5.316;2022-09-30T04:36:43;27.70;;;12.23;;
33138;SDS011;19501;50.948;5.316;2022-09-30T04:39:09;24.83;;;11.75;;
33138;SDS011;19501;50.948;5.316;2022-09-30T04:41:35;27.17;;;12.13;;
33138;SDS011;19501;50.948;5.316;2022-09-30T04:44:01;26.48;;;12.43;;
33138;SDS011;19501;50.948;5.316;2022-09-30T04:46:30;27.35;;;12.63;;
33138;SDS011;19501;50.948;5.316;2022-09-30T04:48:58;25.83;;;13.23;;
33138;SDS011;19501;50.948;5.316;2022-09-30T04:51:24;28.02;;;14.82;;
33138;SDS011;19501;50.948;5.316;2022-09-30T04:53:50;32.35;;;13.63;;
33138;SDS011;19501;50.948;5.316;2022-09-30T04:56:16;29.90;;;14.38;;
33138;SDS011;19501;50.948;5.316;2022-09-30T04:58:41;27.38;;;13.43;;
33138;SDS011;19501;50.948;5.316;2022-09-30T05:01:09;28.60;;;13.57;;
33138;SDS011;19501;50.948;5.316;2022-09-30T05:03:36;28.63;;;13.80;;
33138;SDS011;19501;50.948;5.316;2022-09-30T05:06:02;27.52;;;13.15;;
33138;SDS011;19501;50.948;5.316;2022-09-30T05:08:29;27.75;;;13.18;;
33138;SDS011;19501;50.948;5.316;2022-09-30T05:10:59;25.85;;;13.07;;
33138;SDS011;19501;50.948;5.316;2022-09-30T05:13:36;26.45;;;13.07;;
33138;SDS011;19501;50.948;5.316;2022-09-30T05:16:04;25.17;;;12.20;;
33138;SDS011;19501;50.948;5.316;2022-09-30T05:18:31;25.88;;;13.30;;
33138;SDS011;19501;50.948;5.316;2022-09-30T05:21:00;27.00;;;13.55;;
33138;SDS011;19501;50.948;5.316;2022-09-30T05:23:28;31.45;;;13.38;;
33138;SDS011;19501;50.948;5.316;2022-09-30T05:25:55;28.85;;;13.07;;
33138;SDS011;19501;50.948;5.316;2022-09-30T05:28:21;27.13;;;13.30;;
33138;SDS011;19501;50.948;5.316;2022-09-30T05:30:47;25.35;;;13.02;;
33138;SDS011;19501;50.948;5.316;2022-09-30T05:33:24;28.15;;;13.40;;
33138;SDS011;19501;50.948;5.316;2022-09-30T05:35:50;28.38;;;12.85;;
33138;SDS011;19501;50.948;5.316;2022-09-30T05:38:19;26.17;;;12.65;;
33138;SDS011;19501;50.948;5.316;2022-09-30T05:40:45;27.13;;;13.27;;
33138;SDS011;19501;50.948;5.316;2022-09-30T05:43:10;28.83;;;13.27;;
33138;SDS011;19501;50.948;5.316;2022-09-30T05:45:36;28.73;;;13.55;;
33138;SDS011;19501;50.948;5.316;2022-09-30T05:48:03;28.02;;;14.05;;
33138;SDS011;19501;50.948;5.316;2022-09-30T05:50:29;31.30;;;13.90;;
33138;SDS011;19501;50.948;5.316;2022-09-30T05:52:55;29.27;;;14.32;;
33138;SDS011;19501;50.948;5.316;2022-09-30T05:55:21;30.70;;;15.20;;
33138;SDS011;19501;50.948;5.316;2022-09-30T05:57:47;26.52;;;13.93;;
33138;SDS011;19501;50.948;5.316;2022-09-30T06:00:14;28.42;;;13.48;;
33138;SDS011;19501;50.948;5.316;2022-09-30T06:02:40;30.17;;;14.02;;
33138;SDS011;19501;50.948;5.316;2022-09-30T06:05:07;29.15;;;13.85;;
33138;SDS011;19501;50.948;5.316;2022-09-30T06:07:36;33.05;;;14.68;;
33138;SDS011;19501;50.948;5.316;2022-09-30T06:10:02;31.70;;;14.10;;
33138;SDS011;19501;50.948;5.316;2022-09-30T06:12:29;37.88;;;16.08;;
33138;SDS011;19501;50.948;5.316;2022-09-30T06:14:55;36.10;;;17.60;;
33138;SDS011;19501;50.948;5.316;2022-09-30T06:17:21;32.70;;;15.48;;
33138;SDS011;19501;50.948;5.316;2022-09-30T06:19:47;37.90;;;17.75;;
33138;SDS011;19501;50.948;5.316;2022-09-30T06:22:14;34.22;;;17.25;;
33138;SDS011;19501;50.948;5.316;2022-09-30T06:24:40;35.63;;;17.27;;
33138;SDS011;19501;50.948;5.316;2022-09-30T06:27:06;35.80;;;17.23;;
33138;SDS011;19501;50.948;5.316;2022-09-30T06:29:32;34.10;;;17.23;;
33138;SDS011;19501;50.948;5.316;2022-09-30T06:31:58;38.75;;;17.45;;
33138;SDS011;19501;50.948;5.316;2022-09-30T06:34:24;37.92;;;17.50;;
33138;SDS011;19501;50.948;5.316;2022-09-30T06:36:50;37.13;;;17.80;;
33138;SDS011;19501;50.948;5.316;2022-09-30T06:39:18;35.42;;;16.30;;
33138;SDS011;19501;50.948;5.316;2022-09-30T06:41:44;37.08;;;17.88;;
33138;SDS011;19501;50.948;5.316;2022-09-30T06:44:11;35.15;;;17.90;;
33138;SDS011;19501;50.948;5.316;2022-09-30T06:46:40;35.20;;;17.38;;
33138;SDS011;19501;50.948;5.316;2022-09-30T06:49:05;34.80;;;17.27;;
33138;SDS011;19501;50.948;5.316;2022-09-30T06:51:31;34.60;;;16.85;;
33138;SDS011;19501;50.948;5.316;2022-09-30T06:53:57;43.08;;;19.15;;
33138;SDS011;19501;50.948;5.316;2022-09-30T06:56:25;41.85;;;19.23;;
33138;SDS011;19501;50.948;5.316;2022-09-30T06:58:52;41.13;;;21.40;;
33138;SDS011;19501;50.948;5.316;2022-09-30T07:01:18;47.10;;;23.17;;
33138;SDS011;19501;50.948;5.316;2022-09-30T07:03:45;45.22;;;23.63;;
33138;SDS011;19501;50.948;5.316;2022-09-30T07:06:11;46.13;;;22.38;;
33138;SDS011;19501;50.948;5.316;2022-09-30T07:08:38;49.30;;;22.83;;
33138;SDS011;19501;50.948;5.316;2022-09-30T07:11:07;46.22;;;23.67;;
33138;SDS011;19501;50.948;5.316;2022-09-30T07:13:38;47.55;;;24.75;;
33138;SDS011;19501;50.948;5.316;2022-09-30T07:16:14;55.03;;;25.95;;
33138;SDS011;19501;50.948;5.316;2022-09-30T07:18:42;55.88;;;26.42;;
33138;SDS011;19501;50.948;5.316;2022-09-30T07:21:09;55.30;;;27.42;;
33138;SDS011;19501;50.948;5.316;2022-09-30T07:23:40;57.15;;;28.45;;
33138;SDS011;19501;50.948;5.316;2022-09-30T07:26:16;52.15;;;27.58;;
33138;SDS011;19501;50.948;5.316;2022-09-30T07:28:43;53.17;;;28.45;;
33138;SDS011;19501;50.948;5.316;2022-09-30T07:31:12;53.15;;;28.13;;
33138;SDS011;19501;50.948;5.316;2022-09-30T07:33:43;57.42;;;29.55;;
33138;SDS011;19501;50.948;5.316;2022-09-30T07:36:10;55.92;;;29.33;;
33138;SDS011;19501;50.948;5.316;2022-09-30T07:38:37;58.88;;;29.02;;
33138;SDS011;19501;50.948;5.316;2022-09-30T07:41:06;59.67;;;30.05;;
33138;SDS011;19501;50.948;5.316;2022-09-30T07:43:34;58.83;;;30.30;;
33138;SDS011;19501;50.948;5.316;2022-09-30T07:46:04;62.67;;;31.83;;
33138;SDS011;19501;50.948;5.316;2022-09-30T07:48:35;61.60;;;30.83;;
33138;SDS011;19501;50.948;5.316;2022-09-30T07:51:02;58.28;;;30.63;;
33138;SDS011;19501;50.948;5.316;2022-09-30T07:53:28;63.97;;;32.65;;
33138;SDS011;19501;50.948;5.316;2022-09-30T07:55:54;62.33;;;30.88;;
33138;SDS011;19501;50.948;5.316;2022-09-30T07:58:20;61.63;;;30.58;;
33138;SDS011;19501;50.948;5.316;2022-09-30T08:00:46;61.72;;;31.17;;
33138;SDS011;19501;50.948;5.316;2022-09-30T08:03:15;61.70;;;30.95;;
33138;SDS011;19501;50.948;5.316;2022-09-30T08:05:43;63.15;;;31.63;;
33138;SDS011;19501;50.948;5.316;2022-09-30T08:08:13;63.35;;;31.80;;
33138;SDS011;19501;50.948;5.316;2022-09-30T08:10:39;64.78;;;32.63;;
33138;SDS011;19501;50.948;5.316;2022-09-30T08:13:05;62.72;;;31.40;;
33138;SDS011;19501;50.948;5.316;2022-09-30T08:15:32;65.22;;;31.88;;
33138;SDS011;19501;50.948;5.316;2022-09-30T08:17:57;62.60;;;31.23;;
33138;SDS011;19501;50.948;5.316;2022-09-30T08:20:23;61.13;;;30.52;;
33138;SDS011;19501;50.948;5.316;2022-09-30T08:22:52;60.13;;;30.38;;
33138;SDS011;19501;50.948;5.316;2022-09-30T08:25:19;58.05;;;30.58;;
33138;SDS011;19501;50.948;5.316;2022-09-30T08:27:46;61.90;;;29.85;;
33138;SDS011;19501;50.948;5.316;2022-09-30T08:30:12;61.35;;;30.42;;
33138;SDS011;19501;50.948;5.316;2022-09-30T08:32:37;54.53;;;27.88;;
33138;SDS011;19501;50.948;5.316;2022-09-30T08:35:04;60.47;;;30.98;;
33138;SDS011;19501;50.948;5.316;2022-09-30T08:37:32;54.85;;;28.90;;
33138;SDS011;19501;50.948;5.316;2022-09-30T08:39:58;52.42;;;27.10;;
33138;SDS011;19501;50.948;5.316;2022-09-30T08:42:30;56.63;;;28.60;;
33138;SDS011;19501;50.948;5.316;2022-09-30T08:48:01;49.47;;;25.17;;
33138;SDS011;19501;50.948;5.316;2022-09-30T08:50:47;51.03;;;25.08;;
33138;SDS011;19501;50.948;5.316;2022-09-30T08:53:25;48.65;;;24.40;;
33138;SDS011;19501;50.948;5.316;2022-09-30T08:55:54;52.50;;;26.15;;
33138;SDS011;19501;50.948;5.316;2022-09-30T08:58:27;48.78;;;25.13;;
33138;SDS011;19501;50.948;5.316;2022-09-30T09:01:01;46.35;;;24.60;;
33138;SDS011;19501;50.948;5.316;2022-09-30T09:03:35;46.63;;;23.40;;
33138;SDS011;19501;50.948;5.316;2022-09-30T09:08:59;43.85;;;22.63;;
33138;SDS011;19501;50.948;5.316;2022-09-30T09:11:51;51.45;;;24.25;;
33138;SDS011;19501;50.948;5.316;2022-09-30T09:20:02;46.53;;;22.50;;
33138;SDS011;19501;50.948;5.316;2022-09-30T09:22:45;45.93;;;22.93;;
33138;SDS011;19501;50.948;5.316;2022-09-30T09:25:14;44.45;;;19.67;;
33138;SDS011;19501;50.948;5.316;2022-09-30T09:27:50;46.38;;;19.73;;
33138;SDS011;19501;50.948;5.316;2022-09-30T09:30:24;46.83;;;20.52;;
33138;SDS011;19501;50.948;5.316;2022-09-30T09:32:57;41.72;;;19.60;;
33138;SDS011;19501;50.948;5.316;2022-09-30T09:37:54;45.88;;;18.83;;
33138;SDS011;19501;50.948;5.316;2022-09-30T09:46:31;41.88;;;15.52;;
33138;SDS011;19501;50.948;5.316;2022-09-30T09:54:24;41.97;;;15.97;;
33138;SDS011;19501;50.948;5.316;2022-09-30T09:56:53;39.95;;;13.82;;
33138;SDS011;19501;50.948;5.316;2022-09-30T09:59:19;45.05;;;17.50;;
33138;SDS011;19501;50.948;5.316;2022-09-30T10:01:48;22.10;;;8.00;;
33138;SDS011;19501;50.948;5.316;2022-09-30T10:06:49;28.75;;;10.52;;
33138;SDS011;19501;50.948;5.316;2022-09-30T10:17:02;21.00;;;8.55;;
33138;SDS011;19501;50.948;5.316;2022-09-30T10:19:30;21.60;;;8.23;;
33138;SDS011;19501;50.948;5.316;2022-09-30T10:24:32;18.17;;;6.53;;
33138;SDS011;19501;50.948;5.316;2022-09-30T10:26:58;17.10;;;5.70;;
33138;SDS011;19501;50.948;5.316;2022-09-30T10:29:25;11.50;;;4.20;;
33138;SDS011;19501;50.948;5.316;2022-09-30T10:31:53;19.27;;;6.43;;
33138;SDS011;19501;50.948;5.316;2022-09-30T10:36:49;13.13;;;4.82;;
33138;SDS011;19501;50.948;5.316;2022-09-30T10:39:26;13.57;;;4.80;;
33138;SDS011;19501;50.948;5.316;2022-09-30T10:44:32;11.18;;;4.68;;
33138;SDS011;19501;50.948;5.316;2022-09-30T10:47:08;9.73;;;3.65;;
33138;SDS011;19501;50.948;5.316;2022-09-30T10:49:39;13.30;;;4.50;;
33138;SDS011;19501;50.948;5.316;2022-09-30T10:52:15;11.32;;;4.53;;
33138;SDS011;19501;50.948;5.316;2022-09-30T10:54:52;9.85;;;4.10;;
33138;SDS011;19501;50.948;5.316;2022-09-30T10:57:23;11.27;;;4.43;;
33138;SDS011;19501;50.948;5.316;2022-09-30T11:00:17;15.70;;;5.07;;
33138;SDS011;19501;50.948;5.316;2022-09-30T11:02:47;10.10;;;3.65;;
33138;SDS011;19501;50.948;5.316;2022-09-30T11:05:16;9.35;;;3.83;;
33138;SDS011;19501;50.948;5.316;2022-09-30T11:15:44;8.57;;;2.78;;
33138;SDS011;19501;50.948;5.316;2022-09-30T11:18:22;9.65;;;3.17;;
33138;SDS011;19501;50.948;5.316;2022-09-30T11:21:00;9.23;;;3.00;;
33138;SDS011;19501;50.948;5.316;2022-09-30T11:23:35;8.65;;;2.90;;
33138;SDS011;19501;50.948;5.316;2022-09-30T11:28:41;7.78;;;2.92;;
33138;SDS011;19501;50.948;5.316;2022-09-30T11:40:28;7.22;;;3.10;;
33138;SDS011;19501;50.948;5.316;2022-09-30T11:42:54;6.43;;;3.10;;
33138;SDS011;19501;50.948;5.316;2022-09-30T11:45:30;6.97;;;3.40;;
33138;SDS011;19501;50.948;5.316;2022-09-30T11:58:45;9.10;;;3.90;;
33138;SDS011;19501;50.948;5.316;2022-09-30T12:04:03;6.13;;;3.60;;
33138;SDS011;19501;50.948;5.316;2022-09-30T12:06:35;5.55;;;2.63;;
33138;SDS011;19501;50.948;5.316;2022-09-30T12:09:11;8.02;;;2.22;;
33138;SDS011;19501;50.948;5.316;2022-09-30T12:12:01;7.40;;;2.60;;
33138;SDS011;19501;50.948;5.316;2022-09-30T12:14:35;5.55;;;2.38;;
33138;SDS011;19501;50.948;5.316;2022-09-30T12:17:05;5.15;;;2.60;;
33138;SDS011;19501;50.948;5.316;2022-09-30T12:19:44;8.25;;;2.90;;
33138;SDS011;19501;50.948;5.316;2022-09-30T12:22:15;5.57;;;2.60;;
33138;SDS011;19501;50.948;5.316;2022-09-30T12:24:43;5.40;;;3.00;;
33138;SDS011;19501;50.948;5.316;2022-09-30T12:27:14;7.50;;;3.42;;
33138;SDS011;19501;50.948;5.316;2022-09-30T12:29:59;4.27;;;2.50;;
33138;SDS011;19501;50.948;5.316;2022-09-30T12:32:51;7.85;;;2.97;;
33138;SDS011;19501;50.948;5.316;2022-09-30T12:35:50;6.93;;;2.60;;
33138;SDS011;19501;50.948;5.316;2022-09-30T12:48:46;8.75;;;2.83;;
33138;SDS011;19501;50.948;5.316;2022-09-30T12:51:30;5.85;;;2.58;;
33138;SDS011;19501;50.948;5.316;2022-09-30T12:56:40;5.82;;;3.03;;
33138;SDS011;19501;50.948;5.316;2022-09-30T12:59:08;8.23;;;3.25;;
33138;SDS011;19501;50.948;5.316;2022-09-30T13:01:36;5.80;;;3.10;;
33138;SDS011;19501;50.948;5.316;2022-09-30T13:09:20;8.65;;;3.10;;
33138;SDS011;19501;50.948;5.316;2022-09-30T13:19:37;7.68;;;3.03;;
33138;SDS011;19501;50.948;5.316;2022-09-30T13:43:15;4.32;;;2.30;;
33138;SDS011;19501;50.948;5.316;2022-09-30T13:45:46;6.38;;;2.40;;
33138;SDS011;19501;50.948;5.316;2022-09-30T13:48:15;7.57;;;2.50;;
33138;SDS011;19501;50.948;5.316;2022-09-30T13:50:48;5.72;;;2.33;;
33138;SDS011;19501;50.948;5.316;2022-09-30T13:56:03;3.10;;;2.03;;
33138;SDS011;19501;50.948;5.316;2022-09-30T14:01:29;6.15;;;2.20;;
33138;SDS011;19501;50.948;5.316;2022-09-30T14:04:40;4.65;;;2.22;;
33138;SDS011;19501;50.948;5.316;2022-09-30T14:12:37;3.75;;;2.40;;
33138;SDS011;19501;50.948;5.316;2022-09-30T14:15:31;4.78;;;2.45;;
33138;SDS011;19501;50.948;5.316;2022-09-30T14:24:08;6.65;;;2.65;;
33138;SDS011;19501;50.948;5.316;2022-09-30T14:31:44;6.28;;;2.35;;
33138;SDS011;19501;50.948;5.316;2022-09-30T14:34:12;9.02;;;2.90;;
33138;SDS011;19501;50.948;5.316;2022-09-30T14:36:39;6.60;;;2.40;;
33138;SDS011;19501;50.948;5.316;2022-09-30T14:39:09;2.90;;;1.95;;
33138;SDS011;19501;50.948;5.316;2022-09-30T14:41:45;6.38;;;2.38;;
33138;SDS011;19501;50.948;5.316;2022-09-30T14:44:22;5.25;;;2.35;;
33138;SDS011;19501;50.948;5.316;2022-09-30T14:46:50;3.88;;;2.05;;
33138;SDS011;19501;50.948;5.316;2022-09-30T14:49:22;7.47;;;2.45;;
33138;SDS011;19501;50.948;5.316;2022-09-30T14:51:58;5.07;;;2.50;;
33138;SDS011;19501;50.948;5.316;2022-09-30T14:54:26;5.30;;;2.50;;
33138;SDS011;19501;50.948;5.316;2022-09-30T14:56:54;9.80;;;3.60;;
33138;SDS011;19501;50.948;5.316;2022-09-30T15:01:51;6.72;;;2.67;;
33138;SDS011;19501;50.948;5.316;2022-09-30T15:04:26;6.15;;;2.28;;
33138;SDS011;19501;50.948;5.316;2022-09-30T15:07:00;5.95;;;2.20;;
33138;SDS011;19501;50.948;5.316;2022-09-30T15:09:35;5.07;;;2.20;;
33138;SDS011;19501;50.948;5.316;2022-09-30T15:14:48;4.38;;;2.40;;
33138;SDS011;19501;50.948;5.316;2022-09-30T15:17:28;4.97;;;2.50;;
33138;SDS011;19501;50.948;5.316;2022-09-30T15:19:59;3.83;;;2.38;;
33138;SDS011;19501;50.948;5.316;2022-09-30T15:22:26;5.22;;;2.40;;
33138;SDS011;19501;50.948;5.316;2022-09-30T15:24:56;5.05;;;2.67;;
33138;SDS011;19501;50.948;5.316;2022-09-30T15:27:25;3.80;;;2.10;;
33138;SDS011;19501;50.948;5.316;2022-09-30T15:29:58;4.03;;;2.70;;
33138;SDS011;19501;50.948;5.316;2022-09-30T15:32:54;9.07;;;3.65;;
33138;SDS011;19501;50.948;5.316;2022-09-30T15:35:22;8.30;;;3.78;;
33138;SDS011;19501;50.948;5.316;2022-09-30T15:37:49;10.02;;;4.15;;
33138;SDS011;19501;50.948;5.316;2022-09-30T15:40:17;12.60;;;4.55;;
33138;SDS011;19501;50.948;5.316;2022-09-30T15:43:07;4.22;;;2.80;;
33138;SDS011;19501;50.948;5.316;2022-09-30T15:45:38;5.97;;;2.90;;
33138;SDS011;19501;50.948;5.316;2022-09-30T15:50:50;8.57;;;3.00;;
33138;SDS011;19501;50.948;5.316;2022-09-30T15:55:55;5.57;;;2.70;;
33138;SDS011;19501;50.948;5.316;2022-09-30T15:58:40;5.97;;;3.20;;
33138;SDS011;19501;50.948;5.316;2022-09-30T16:01:20;6.88;;;2.88;;
33138;SDS011;19501;50.948;5.316;2022-09-30T16:04:10;4.35;;;2.78;;
33138;SDS011;19501;50.948;5.316;2022-09-30T16:09:06;3.97;;;2.38;;
33138;SDS011;19501;50.948;5.316;2022-09-30T16:11:42;5.18;;;2.45;;
33138;SDS011;19501;50.948;5.316;2022-09-30T16:14:30;6.97;;;2.50;;
33138;SDS011;19501;50.948;5.316;2022-09-30T16:16:58;5.68;;;2.60;;
33138;SDS011;19501;50.948;5.316;2022-09-30T16:19:27;6.63;;;2.45;;
33138;SDS011;19501;50.948;5.316;2022-09-30T16:21:54;3.63;;;2.08;;
33138;SDS011;19501;50.948;5.316;2022-09-30T16:27:00;6.63;;;2.88;;
33138;SDS011;19501;50.948;5.316;2022-09-30T16:29:53;6.32;;;2.90;;
33138;SDS011;19501;50.948;5.316;2022-09-30T16:32:19;5.38;;;2.67;;
33138;SDS011;19501;50.948;5.316;2022-09-30T16:34:45;6.72;;;2.97;;
33138;SDS011;19501;50.948;5.316;2022-09-30T16:37:14;8.57;;;2.88;;
33138;SDS011;19501;50.948;5.316;2022-09-30T16:39:43;9.20;;;3.50;;
33138;SDS011;19501;50.948;5.316;2022-09-30T16:42:12;10.32;;;3.30;;
33138;SDS011;19501;50.948;5.316;2022-09-30T16:44:39;6.50;;;3.10;;
33138;SDS011;19501;50.948;5.316;2022-09-30T16:47:11;5.75;;;2.88;;
33138;SDS011;19501;50.948;5.316;2022-09-30T16:49:40;7.03;;;3.00;;
33138;SDS011;19501;50.948;5.316;2022-09-30T16:52:10;4.00;;;2.60;;
33138;SDS011;19501;50.948;5.316;2022-09-30T16:54:37;7.45;;;3.65;;
33138;SDS011;19501;50.948;5.316;2022-09-30T16:57:03;8.13;;;3.40;;
33138;SDS011;19501;50.948;5.316;2022-09-30T16:59:29;7.55;;;3.42;;
33138;SDS011;19501;50.948;5.316;2022-09-30T17:01:56;7.75;;;3.30;;
33138;SDS011;19501;50.948;5.316;2022-09-30T17:04:23;8.63;;;3.10;;
33138;SDS011;19501;50.948;5.316;2022-09-30T17:06:50;9.23;;;3.80;;
33138;SDS011;19501;50.948;5.316;2022-09-30T17:09:17;8.80;;;3.88;;
33138;SDS011;19501;50.948;5.316;2022-09-30T17:11:43;12.43;;;4.07;;
33138;SDS011;19501;50.948;5.316;2022-09-30T17:14:08;10.38;;;3.88;;
33138;SDS011;19501;50.948;5.316;2022-09-30T17:16:34;9.27;;;3.80;;
33138;SDS011;19501;50.948;5.316;2022-09-30T17:19:00;10.80;;;3.72;;
33138;SDS011;19501;50.948;5.316;2022-09-30T17:21:25;8.70;;;3.17;;
33138;SDS011;19501;50.948;5.316;2022-09-30T17:23:55;8.18;;;3.45;;
33138;SDS011;19501;50.948;5.316;2022-09-30T17:26:22;8.40;;;3.70;;
33138;SDS011;19501;50.948;5.316;2022-09-30T17:28:47;7.78;;;3.70;;
33138;SDS011;19501;50.948;5.316;2022-09-30T17:31:13;7.97;;;3.50;;
33138;SDS011;19501;50.948;5.316;2022-09-30T17:33:39;7.40;;;4.15;;
33138;SDS011;19501;50.948;5.316;2022-09-30T17:36:08;12.45;;;3.63;;
33138;SDS011;19501;50.948;5.316;2022-09-30T17:38:36;10.07;;;3.90;;
33138;SDS011;19501;50.948;5.316;2022-09-30T17:41:03;5.72;;;2.97;;
33138;SDS011;19501;50.948;5.316;2022-09-30T17:43:48;5.30;;;3.10;;
33138;SDS011;19501;50.948;5.316;2022-09-30T17:46:16;7.40;;;3.53;;
33138;SDS011;19501;50.948;5.316;2022-09-30T17:48:45;4.85;;;3.08;;
33138;SDS011;19501;50.948;5.316;2022-09-30T17:51:12;7.75;;;3.50;;
33138;SDS011;19501;50.948;5.316;2022-09-30T17:53:41;7.63;;;3.50;;
33138;SDS011;19501;50.948;5.316;2022-09-30T17:56:15;6.50;;;3.20;;
33138;SDS011;19501;50.948;5.316;2022-09-30T17:58:44;6.70;;;3.30;;
33138;SDS011;19501;50.948;5.316;2022-09-30T18:01:12;6.00;;;3.17;;
33138;SDS011;19501;50.948;5.316;2022-09-30T18:03:39;11.98;;;4.68;;
33138;SDS011;19501;50.948;5.316;2022-09-30T18:06:04;8.05;;;3.25;;
33138;SDS011;19501;50.948;5.316;2022-09-30T18:08:31;8.18;;;3.75;;
33138;SDS011;19501;50.948;5.316;2022-09-30T18:10:58;7.15;;;3.60;;
33138;SDS011;19501;50.948;5.316;2022-09-30T18:13:24;7.75;;;3.33;;
33138;SDS011;19501;50.948;5.316;2022-09-30T18:15:53;8.32;;;3.65;;
33138;SDS011;19501;50.948;5.316;2022-09-30T18:18:19;10.43;;;3.80;;
33138;SDS011;19501;50.948;5.316;2022-09-30T18:20:46;10.23;;;4.05;;
33138;SDS011;19501;50.948;5.316;2022-09-30T18:23:14;7.28;;;3.60;;
33138;SDS011;19501;50.948;5.316;2022-09-30T18:25:42;10.82;;;4.28;;